createdAt,value
2018-08-04T00:01:03.112Z,67.40
2018-08-04T00:03:31.439Z,67.50
2018-08-04T00:05:59.774Z,67.60
2018-08-04T00:08:28.092Z,67.50
2018-08-04T00:10:56.410Z,67.70
2018-08-04T00:13:24.724Z,67.70
2018-08-04T00:15:53.050Z,67.70
2018-08-04T00:18:21.362Z,67.70
2018-08-04T00:20:49.672Z,67.80
2018-08-04T00:23:18.057Z,67.90
2018-08-04T00:25:46.364Z,68.00
2018-08-04T00:28:14.726Z,68.10
2018-08-04T00:30:43.024Z,68.10
2018-08-04T00:33:11.346Z,68.10
2018-08-04T00:35:39.644Z,68.10
2018-08-04T00:38:08.011Z,68.10
2018-08-04T00:40:36.331Z,67.90
2018-08-04T00:43:04.698Z,68.10
2018-08-04T00:45:33.002Z,68.10
2018-08-04T00:48:01.337Z,67.80
2018-08-04T00:52:57.702Z,67.80
2018-08-04T00:55:26.036Z,67.90
2018-08-04T01:00:22.409Z,68.10
2018-08-04T01:02:50.750Z,68.10
2018-08-04T01:05:19.094Z,68.20
2018-08-04T01:07:47.864Z,68.20
2018-08-04T01:12:45.254Z,68.30
2018-08-04T01:15:14.028Z,68.60
2018-08-04T01:17:42.423Z,68.80
2018-08-04T01:20:10.732Z,68.90
2018-08-04T01:22:39.038Z,68.90
2018-08-04T01:25:07.956Z,68.90
2018-08-04T01:27:36.262Z,68.80
2018-08-04T01:30:05.824Z,68.90
2018-08-04T01:32:34.128Z,68.90
2018-08-04T01:35:02.458Z,69.00
2018-08-04T01:37:30.783Z,69.10
2018-08-04T01:39:59.104Z,69.20
2018-08-04T01:42:27.556Z,69.20
2018-08-04T01:44:55.883Z,69.10
2018-08-04T01:47:24.194Z,69.30
2018-08-04T01:49:52.528Z,69.40
2018-08-04T01:52:20.811Z,69.40
2018-08-04T01:54:49.100Z,69.50
2018-08-04T01:57:17.437Z,69.80
2018-08-04T01:59:45.739Z,70.50
2018-08-04T02:02:14.080Z,71.40
2018-08-04T02:04:42.359Z,71.50
2018-08-04T02:07:10.702Z,71.40
2018-08-04T02:09:38.997Z,71.40
2018-08-04T02:12:07.318Z,71.60
2018-08-04T02:14:35.620Z,71.80
2018-08-04T02:17:04.309Z,72.00
2018-08-04T02:19:32.634Z,72.40
2018-08-04T02:22:01.012Z,72.60
2018-08-04T02:24:29.338Z,72.80
2018-08-04T02:26:57.670Z,72.90
2018-08-04T02:29:26.051Z,73.00
2018-08-04T02:31:54.493Z,73.00
2018-08-04T02:34:22.792Z,72.90
2018-08-04T02:36:51.136Z,72.70
2018-08-04T02:39:19.474Z,72.80
2018-08-04T02:41:47.848Z,73.00
2018-08-04T02:44:16.209Z,73.30
2018-08-04T02:46:44.500Z,73.20
2018-08-04T02:49:12.964Z,73.00
2018-08-04T02:51:41.286Z,73.10
2018-08-04T02:54:09.612Z,73.20
2018-08-04T02:56:37.923Z,73.30
2018-08-04T02:59:06.330Z,73.40
2018-08-04T03:01:34.593Z,73.70
2018-08-04T03:04:03.107Z,73.80
2018-08-04T03:06:31.437Z,73.80
2018-08-04T03:08:59.751Z,73.70
2018-08-04T03:11:28.091Z,73.70
2018-08-04T03:13:56.414Z,73.80
2018-08-04T03:16:24.752Z,73.80
2018-08-04T03:18:53.069Z,73.90
2018-08-04T03:21:21.371Z,73.80
2018-08-04T03:23:49.676Z,73.80
2018-08-04T03:26:17.980Z,73.80
2018-08-04T03:28:46.318Z,74.10
2018-08-04T03:31:14.640Z,74.40
2018-08-04T03:33:42.948Z,74.40
2018-08-04T03:36:11.286Z,74.50
2018-08-04T03:38:39.675Z,74.50
2018-08-04T03:41:08.016Z,74.40
2018-08-04T03:43:36.300Z,74.30
2018-08-04T03:46:04.687Z,74.10
2018-08-04T03:48:33.166Z,74.30
2018-08-04T03:51:01.515Z,74.20
2018-08-04T03:53:29.825Z,74.20
2018-08-04T03:55:58.419Z,74.20
2018-08-04T03:58:26.755Z,74.10
2018-08-04T04:00:55.110Z,74.10
2018-08-04T04:03:23.437Z,73.80
2018-08-04T04:05:51.798Z,73.90
2018-08-04T04:08:20.129Z,74.00
2018-08-04T04:10:48.487Z,73.90
2018-08-04T04:13:16.808Z,73.80
2018-08-04T04:15:45.152Z,74.00
2018-08-04T04:18:13.453Z,74.00
2018-08-04T04:20:41.788Z,74.30
2018-08-04T04:25:38.175Z,74.50
2018-08-04T04:28:06.510Z,74.40
2018-08-04T04:30:34.836Z,74.30
2018-08-04T04:33:03.156Z,74.20
2018-08-04T04:35:31.440Z,74.20
2018-08-04T04:37:59.774Z,74.40
2018-08-04T04:40:28.082Z,74.10
2018-08-04T04:42:56.399Z,74.10
2018-08-04T04:45:24.700Z,73.90
2018-08-04T04:47:53.034Z,73.80
2018-08-04T04:50:21.353Z,73.60
2018-08-04T04:52:49.999Z,73.80
2018-08-04T04:55:18.472Z,73.70
2018-08-04T04:57:46.810Z,73.70
2018-08-04T05:00:15.143Z,73.50
2018-08-04T05:02:43.685Z,73.40
2018-08-04T05:05:11.991Z,73.30
2018-08-04T05:07:40.324Z,73.30
2018-08-04T05:10:08.890Z,73.40
2018-08-04T05:12:37.224Z,73.10
2018-08-04T05:15:06.636Z,73.00
2018-08-04T05:17:34.946Z,72.80
2018-08-04T05:20:03.321Z,72.70
2018-08-04T05:22:34.687Z,72.50
2018-08-04T05:25:03.204Z,72.40
2018-08-04T05:27:31.520Z,72.30
2018-08-04T05:29:59.846Z,72.50
2018-08-04T05:32:28.187Z,72.60
2018-08-04T05:34:56.504Z,72.90
2018-08-04T05:37:24.848Z,73.40
2018-08-04T05:39:53.372Z,72.90
2018-08-04T05:42:21.705Z,73.10
2018-08-04T05:47:18.074Z,72.40
2018-08-04T05:49:46.404Z,72.00
2018-08-04T05:52:14.722Z,72.40
2018-08-04T05:54:43.070Z,71.90
2018-08-04T05:57:11.368Z,71.80
2018-08-04T05:59:39.733Z,71.50
2018-08-04T06:02:08.024Z,71.70
2018-08-04T06:04:36.388Z,71.60
2018-08-04T06:07:04.723Z,71.60
2018-08-04T06:09:33.047Z,71.00
2018-08-04T06:12:01.333Z,71.40
2018-08-04T06:14:29.700Z,71.70
2018-08-04T06:16:58.008Z,70.90
2018-08-04T06:19:26.322Z,71.00
2018-08-04T06:21:54.666Z,70.80
2018-08-04T06:24:22.976Z,70.50
2018-08-04T06:26:51.310Z,69.70
2018-08-04T06:29:19.668Z,69.90
2018-08-04T06:31:47.974Z,70.00
2018-08-04T06:34:16.289Z,69.60
2018-08-04T06:36:44.620Z,69.10
2018-08-04T06:39:12.924Z,67.60
2018-08-04T06:41:41.339Z,68.50
2018-08-04T06:44:09.623Z,67.70
2018-08-04T06:46:38.043Z,68.80
2018-08-04T06:49:06.403Z,68.30
2018-08-04T06:51:34.724Z,69.00
2018-08-04T06:54:03.026Z,69.00
2018-08-04T06:56:31.445Z,69.10
2018-08-04T06:58:59.742Z,68.70
2018-08-04T07:01:28.097Z,68.40
2018-08-04T07:06:24.592Z,67.60
2018-08-04T07:08:52.885Z,67.90
2018-08-04T07:11:21.313Z,67.20
2018-08-04T07:13:49.637Z,66.50
2018-08-04T07:16:17.925Z,66.00
2018-08-04T07:18:46.228Z,65.30
2018-08-04T07:21:14.539Z,65.10
2018-08-04T07:23:42.872Z,65.10
2018-08-04T07:26:11.259Z,65.70
2018-08-04T07:28:39.593Z,66.00
2018-08-04T07:31:08.606Z,65.40
2018-08-04T07:33:37.019Z,64.90
2018-08-04T07:36:05.336Z,63.70
2018-08-04T07:38:33.644Z,63.90
2018-08-04T07:41:02.042Z,63.70
2018-08-04T07:43:30.324Z,63.50
2018-08-04T07:45:58.634Z,63.10
2018-08-04T07:48:26.972Z,62.70
2018-08-04T07:50:55.535Z,62.70
2018-08-04T07:53:23.862Z,62.40
2018-08-04T07:55:52.264Z,62.50
2018-08-04T07:58:20.583Z,61.70
2018-08-04T08:00:48.921Z,61.30
2018-08-04T08:03:17.342Z,60.80
2018-08-04T08:05:45.693Z,60.70
2018-08-04T08:08:14.010Z,59.20
2018-08-04T08:10:42.454Z,59.60
2018-08-04T08:13:10.704Z,59.30
2018-08-04T08:15:39.030Z,57.50
2018-08-04T08:18:07.364Z,57.40
2018-08-04T08:20:35.715Z,56.70
2018-08-04T08:23:04.098Z,56.60
2018-08-04T08:25:32.411Z,56.70
2018-08-04T08:28:00.729Z,56.60
2018-08-04T08:30:29.051Z,56.50
2018-08-04T08:32:57.368Z,56.00
2018-08-04T08:35:25.719Z,56.40
2018-08-04T08:37:54.068Z,56.20
2018-08-04T08:40:22.464Z,56.10
2018-08-04T08:42:50.731Z,56.20
2018-08-04T08:45:19.173Z,56.00
2018-08-04T08:47:47.494Z,55.90
2018-08-04T08:50:15.874Z,55.60
2018-08-04T08:52:44.222Z,55.10
2018-08-04T08:55:12.661Z,55.60
2018-08-04T08:57:41.066Z,55.20
2018-08-04T09:00:10.823Z,55.20
2018-08-04T09:02:39.191Z,55.10
2018-08-04T09:05:08.556Z,53.50
2018-08-04T09:07:36.851Z,53.60
2018-08-04T09:10:07.908Z,52.60
2018-08-04T09:12:36.223Z,51.90
2018-08-04T09:15:04.660Z,52.10
2018-08-04T09:17:33.002Z,51.60
2018-08-04T09:20:01.317Z,52.50
2018-08-04T09:22:29.687Z,52.50
2018-08-04T09:24:58.348Z,51.60
2018-08-04T09:27:26.706Z,51.20
2018-08-04T09:29:55.012Z,50.80
2018-08-04T09:32:23.447Z,50.80
2018-08-04T09:34:51.756Z,51.30
2018-08-04T09:37:20.201Z,50.50
2018-08-04T09:39:48.524Z,50.80
2018-08-04T09:42:16.852Z,50.70
2018-08-04T09:47:13.209Z,51.20
2018-08-04T09:49:41.522Z,50.80
2018-08-04T09:52:09.845Z,50.60
2018-08-04T09:54:38.152Z,50.50
2018-08-04T09:57:06.501Z,49.60
2018-08-04T09:59:34.828Z,49.70
2018-08-04T10:02:08.668Z,49.00
2018-08-04T10:04:36.960Z,49.30
2018-08-04T10:07:05.782Z,48.90
2018-08-04T10:09:34.095Z,48.90
2018-08-04T10:12:02.810Z,48.90
2018-08-04T10:14:31.748Z,48.80
2018-08-04T10:17:00.193Z,49.20
2018-08-04T10:19:28.512Z,49.90
2018-08-04T10:21:56.846Z,50.40
2018-08-04T10:24:25.142Z,49.50
2018-08-04T10:26:53.469Z,49.20
2018-08-04T10:29:21.780Z,49.60
2018-08-04T10:31:50.098Z,49.50
2018-08-04T10:34:18.396Z,49.60
2018-08-04T10:36:46.779Z,48.50
2018-08-04T10:39:15.182Z,47.50
2018-08-04T10:44:11.663Z,47.90
2018-08-04T10:46:40.009Z,47.20
2018-08-04T10:49:08.312Z,46.90
2018-08-04T10:51:36.640Z,47.40
2018-08-04T10:56:39.663Z,46.30
2018-08-04T10:59:08.179Z,46.70
2018-08-04T11:01:36.551Z,47.00
2018-08-04T11:04:04.925Z,47.00
2018-08-04T11:06:33.267Z,47.80
2018-08-04T11:09:02.143Z,47.10
2018-08-04T11:11:30.451Z,47.70
2018-08-04T11:13:58.824Z,47.40
2018-08-04T11:16:27.116Z,47.60
2018-08-04T11:18:55.449Z,47.60
2018-08-04T11:21:23.787Z,46.60
2018-08-04T11:23:52.156Z,46.40
2018-08-04T11:26:20.467Z,47.00
2018-08-04T11:28:48.804Z,47.50
2018-08-04T11:31:17.262Z,47.10
2018-08-04T11:33:45.584Z,47.00
2018-08-04T11:36:13.884Z,47.00
2018-08-04T11:38:42.229Z,46.90
2018-08-04T11:41:10.554Z,46.30
2018-08-04T11:43:38.880Z,46.70
2018-08-04T11:46:07.192Z,46.70
2018-08-04T11:48:35.508Z,46.50
2018-08-04T11:51:03.836Z,46.40
2018-08-04T11:53:32.201Z,46.10
2018-08-04T11:56:00.515Z,46.70
2018-08-04T12:00:56.962Z,47.40
2018-08-04T12:03:25.262Z,48.10
2018-08-04T12:05:53.584Z,47.40
2018-08-04T12:08:21.947Z,47.30
2018-08-04T12:10:50.324Z,46.90
2018-08-04T12:13:18.636Z,45.90
2018-08-04T12:15:46.973Z,46.60
2018-08-04T12:18:15.406Z,45.70
2018-08-04T12:20:43.716Z,45.80
2018-08-04T12:23:12.910Z,46.70
2018-08-04T12:25:41.205Z,47.00
2018-08-04T12:28:09.525Z,46.10
2018-08-04T12:30:37.881Z,46.60
2018-08-04T12:33:06.536Z,46.40
2018-08-04T12:35:34.883Z,46.00
2018-08-04T12:38:03.184Z,45.90
2018-08-04T12:40:31.567Z,45.90
2018-08-04T12:42:59.894Z,45.30
2018-08-04T12:45:28.211Z,45.90
2018-08-04T12:47:56.533Z,45.90
2018-08-04T12:50:24.820Z,46.40
2018-08-04T12:52:53.124Z,46.10
2018-08-04T12:55:21.698Z,45.60
2018-08-04T12:57:50.036Z,45.70
2018-08-04T13:00:18.340Z,45.70
2018-08-04T13:02:46.743Z,45.40
2018-08-04T13:05:15.080Z,45.60
2018-08-04T13:07:43.410Z,46.50
2018-08-04T13:10:11.750Z,46.10
2018-08-04T13:12:40.047Z,45.50
2018-08-04T13:15:08.847Z,45.40
2018-08-04T13:17:37.141Z,46.20
2018-08-04T13:20:05.508Z,46.00
2018-08-04T13:22:33.847Z,46.20
2018-08-04T13:25:02.212Z,45.50
2018-08-04T13:27:30.518Z,45.70
2018-08-04T13:29:58.907Z,45.50
2018-08-04T13:32:27.237Z,45.60
2018-08-04T13:34:55.555Z,45.40
2018-08-04T13:37:23.900Z,46.00
2018-08-04T13:39:52.207Z,46.00
2018-08-04T13:42:20.557Z,45.80
2018-08-04T13:44:48.960Z,46.20
2018-08-04T13:47:17.511Z,46.30
2018-08-04T13:49:45.829Z,46.60
2018-08-04T13:52:14.152Z,46.60
2018-08-04T13:54:42.446Z,46.00
2018-08-04T13:57:10.778Z,45.80
2018-08-04T13:59:39.129Z,46.30
2018-08-04T14:02:07.489Z,46.00
2018-08-04T14:04:35.788Z,46.40
2018-08-04T14:07:04.148Z,46.00
2018-08-04T14:09:32.450Z,46.10
2018-08-04T14:12:00.818Z,46.00
2018-08-04T14:14:29.112Z,45.30
2018-08-04T14:16:57.461Z,45.50
2018-08-04T14:19:25.819Z,45.70
2018-08-04T14:21:54.156Z,45.60
2018-08-04T14:24:22.460Z,44.90
2018-08-04T14:26:50.807Z,45.40
2018-08-04T14:29:19.132Z,45.20
2018-08-04T14:31:47.467Z,45.40
2018-08-04T14:34:15.779Z,46.20
2018-08-04T14:36:44.116Z,46.10
2018-08-04T14:39:13.448Z,46.00
2018-08-04T14:41:42.294Z,45.90
2018-08-04T14:44:10.624Z,46.10
2018-08-04T14:46:38.958Z,46.00
2018-08-04T14:49:07.336Z,46.60
2018-08-04T14:51:35.733Z,46.10
2018-08-04T14:54:04.192Z,45.60
2018-08-04T14:56:32.492Z,45.40
2018-08-04T14:59:00.790Z,45.10
2018-08-04T15:01:29.126Z,45.70
2018-08-04T15:03:57.428Z,45.70
2018-08-04T15:06:25.736Z,46.40
2018-08-04T15:08:54.103Z,45.80
2018-08-04T15:11:22.426Z,45.80
2018-08-04T15:13:50.749Z,46.00
2018-08-04T15:16:19.076Z,46.10
2018-08-04T15:18:47.441Z,45.80
2018-08-04T15:21:15.781Z,45.80
2018-08-04T15:23:44.115Z,45.80
2018-08-04T15:26:12.455Z,46.10
2018-08-04T15:28:40.789Z,46.20
2018-08-04T15:31:09.179Z,45.60
2018-08-04T15:33:37.585Z,45.80
2018-08-04T15:36:06.243Z,45.90
2018-08-04T15:38:34.735Z,46.20
2018-08-04T15:41:03.104Z,46.20
2018-08-04T15:43:31.457Z,47.00
2018-08-04T15:45:59.768Z,46.70
2018-08-04T15:48:28.084Z,46.50
2018-08-04T15:50:56.475Z,46.60
2018-08-04T15:53:24.910Z,46.90
2018-08-04T15:55:53.270Z,47.20
2018-08-04T15:58:21.624Z,46.90
2018-08-04T16:00:49.953Z,47.20
2018-08-04T16:03:18.288Z,47.10
2018-08-04T16:05:46.596Z,47.40
2018-08-04T16:08:14.940Z,47.50
2018-08-04T16:10:43.741Z,47.90
2018-08-04T16:13:12.118Z,47.70
2018-08-04T16:15:40.408Z,47.80
2018-08-04T16:18:08.756Z,48.00
2018-08-04T16:20:37.071Z,48.00
2018-08-04T16:23:05.607Z,48.40
2018-08-04T16:25:33.907Z,48.10
2018-08-04T16:28:08.738Z,48.60
2018-08-04T16:30:37.084Z,48.20
2018-08-04T16:33:05.450Z,48.00
2018-08-04T16:35:33.741Z,48.10
2018-08-04T16:38:02.107Z,48.20
2018-08-04T16:40:30.420Z,48.60
2018-08-04T16:42:58.749Z,48.30
2018-08-04T16:45:27.121Z,48.90
2018-08-04T16:47:55.429Z,49.50
2018-08-04T16:50:23.810Z,49.80
2018-08-04T16:52:52.129Z,50.10
2018-08-04T16:55:20.458Z,50.00
2018-08-04T16:57:48.914Z,50.30
2018-08-04T17:00:17.395Z,50.40
2018-08-04T17:02:45.737Z,50.20
2018-08-04T17:05:14.236Z,50.70
2018-08-04T17:07:42.564Z,50.90
2018-08-04T17:10:10.907Z,50.70
2018-08-04T17:12:39.206Z,50.80
2018-08-04T17:15:07.527Z,50.90
2018-08-04T17:17:35.836Z,50.90
2018-08-04T17:20:04.476Z,51.00
2018-08-04T17:22:32.764Z,51.40
2018-08-04T17:25:01.103Z,51.30
2018-08-04T17:27:29.428Z,51.40
2018-08-04T17:29:57.778Z,51.40
2018-08-04T17:32:26.084Z,51.80
2018-08-04T17:34:54.393Z,51.90
2018-08-04T17:37:22.735Z,51.90
2018-08-04T17:39:51.132Z,52.10
2018-08-04T17:42:19.479Z,52.40
2018-08-04T17:44:47.803Z,52.20
2018-08-04T17:47:16.134Z,52.00
2018-08-04T17:49:44.472Z,52.20
2018-08-04T17:52:12.776Z,52.40
2018-08-04T17:54:41.095Z,52.60
2018-08-04T17:59:37.546Z,53.40
2018-08-04T18:02:06.037Z,53.70
2018-08-04T18:04:34.414Z,53.70
2018-08-04T18:09:30.762Z,54.00
2018-08-04T18:11:59.081Z,54.30
2018-08-04T18:14:27.397Z,54.50
2018-08-04T18:16:55.757Z,54.50
2018-08-04T18:19:24.097Z,54.70
2018-08-04T18:21:52.434Z,54.90
2018-08-04T18:24:21.122Z,54.90
2018-08-04T18:26:49.445Z,54.70
2018-08-04T18:29:17.734Z,54.80
2018-08-04T18:31:46.112Z,55.00
2018-08-04T18:34:14.452Z,55.20
2018-08-04T18:36:42.846Z,55.00
2018-08-04T18:41:39.401Z,55.30
2018-08-04T18:44:07.879Z,55.40
2018-08-04T18:46:36.229Z,55.60
2018-08-04T18:49:04.558Z,55.80
2018-08-04T18:51:32.906Z,56.10
2018-08-04T18:54:01.209Z,56.20
2018-08-04T18:56:29.538Z,56.30
2018-08-04T18:58:57.828Z,56.70
2018-08-04T19:01:26.135Z,57.70
2018-08-04T19:03:54.741Z,58.50
2018-08-04T19:06:23.037Z,59.30
2018-08-04T19:08:51.325Z,59.90
2018-08-04T19:11:19.644Z,60.50
2018-08-04T19:13:47.933Z,60.80
2018-08-04T19:16:16.300Z,61.20
2018-08-04T19:18:44.577Z,61.50
2018-08-04T19:21:12.957Z,61.70
2018-08-04T19:23:41.242Z,62.10
2018-08-04T19:26:09.576Z,62.40
2018-08-04T19:28:37.937Z,62.60
2018-08-04T19:31:06.461Z,63.00
2018-08-04T19:33:34.772Z,63.40
2018-08-04T19:36:03.071Z,63.80
2018-08-04T19:38:31.388Z,64.20
2018-08-04T19:40:59.708Z,64.60
2018-08-04T19:43:28.013Z,65.10
2018-08-04T19:45:56.305Z,65.50
2018-08-04T19:48:24.682Z,65.80
2018-08-04T19:50:52.985Z,66.20
2018-08-04T19:53:21.284Z,66.50
2018-08-04T19:55:49.572Z,65.20
2018-08-04T19:58:17.881Z,67.00
2018-08-04T20:00:46.182Z,67.30
2018-08-04T20:03:14.484Z,67.50
2018-08-04T20:05:42.793Z,67.70
2018-08-04T20:08:11.130Z,68.00
2018-08-04T20:10:39.436Z,68.30
2018-08-04T20:13:07.760Z,68.50
2018-08-04T20:15:36.040Z,68.60
2018-08-04T20:18:04.372Z,68.90
2018-08-04T20:20:33.201Z,69.10
2018-08-04T20:23:01.537Z,69.10
2018-08-04T20:25:29.872Z,69.20
2018-08-04T20:27:58.212Z,69.10
2018-08-04T20:30:26.532Z,69.30
2018-08-04T20:32:54.838Z,69.50
2018-08-04T20:35:23.222Z,69.70
2018-08-04T20:37:51.549Z,69.80
2018-08-04T20:40:19.875Z,69.90
2018-08-04T20:42:48.191Z,70.00
2018-08-04T20:45:16.508Z,70.10
2018-08-04T20:47:44.796Z,70.30
2018-08-04T20:50:13.104Z,70.40
2018-08-04T20:52:41.422Z,70.70
2018-08-04T20:55:09.744Z,70.90
2018-08-04T20:57:38.060Z,70.90
2018-08-04T21:00:06.675Z,71.00
2018-08-04T21:02:34.989Z,71.10
2018-08-04T21:05:03.342Z,71.30
2018-08-04T21:07:31.632Z,71.10
2018-08-04T21:09:59.933Z,71.30
2018-08-04T21:12:28.284Z,71.50
2018-08-04T21:14:56.600Z,71.70
2018-08-04T21:17:25.736Z,71.80
2018-08-04T21:19:54.268Z,71.90
2018-08-04T21:22:22.588Z,72.00
2018-08-04T21:24:50.912Z,72.10
2018-08-04T21:27:19.220Z,72.20
2018-08-04T21:29:47.534Z,72.30
2018-08-04T21:32:15.894Z,72.40
2018-08-04T21:34:44.177Z,72.50
2018-08-04T21:37:12.471Z,72.90
2018-08-04T21:39:40.744Z,73.00
2018-08-04T21:42:09.183Z,73.40
2018-08-04T21:44:37.490Z,73.60
2018-08-04T21:47:06.024Z,73.60
2018-08-04T21:49:34.384Z,73.80
2018-08-04T21:52:02.677Z,73.90
2018-08-04T21:54:30.968Z,74.00
2018-08-04T21:56:59.281Z,74.10
2018-08-04T21:59:27.587Z,74.30
2018-08-04T22:01:57.069Z,74.30
2018-08-04T22:04:25.778Z,74.60
2018-08-04T22:07:39.325Z,74.80
2018-08-04T22:10:07.561Z,74.80
2018-08-04T22:12:36.284Z,74.90
2018-08-04T22:15:05.641Z,74.90
2018-08-04T22:17:34.435Z,74.90
2018-08-04T22:20:02.783Z,75.10
2018-08-04T22:22:31.121Z,75.20
2018-08-04T22:24:59.416Z,75.50
2018-08-04T22:27:27.736Z,75.60
2018-08-04T22:29:56.291Z,75.70
2018-08-04T22:32:25.561Z,75.70
2018-08-04T22:34:55.013Z,75.70
2018-08-04T22:37:23.346Z,75.90
2018-08-04T22:39:51.640Z,76.00
2018-08-04T22:42:19.969Z,76.40
2018-08-04T22:45:01.858Z,76.60
2018-08-04T22:47:30.171Z,76.70
2018-08-04T22:49:58.456Z,76.80
2018-08-04T22:52:26.896Z,77.10
2018-08-04T22:54:55.804Z,77.30
2018-08-04T22:57:24.241Z,77.40
2018-08-04T22:59:52.568Z,77.40
2018-08-04T23:02:20.872Z,77.30
2018-08-04T23:04:49.245Z,77.50
2018-08-04T23:07:17.541Z,77.60
2018-08-04T23:09:45.853Z,77.50
2018-08-04T23:12:14.136Z,77.80
2018-08-04T23:14:42.435Z,78.00
2018-08-04T23:17:10.748Z,77.80
2018-08-04T23:19:39.186Z,77.80
2018-08-04T23:22:07.512Z,77.90
2018-08-04T23:24:35.824Z,78.20
2018-08-04T23:27:04.120Z,78.20
2018-08-04T23:29:32.404Z,78.30
2018-08-04T23:32:00.740Z,78.30
2018-08-04T23:36:57.049Z,78.60
2018-08-04T23:39:25.380Z,78.80
2018-08-04T23:41:53.688Z,78.70
2018-08-04T23:44:21.980Z,78.70
2018-08-04T23:46:50.276Z,79.00
2018-08-04T23:49:18.557Z,79.30
2018-08-04T23:51:46.865Z,79.30
2018-08-04T23:54:15.162Z,79.30
2018-08-04T23:56:43.476Z,79.50
2018-08-04T23:59:11.856Z,79.70
